Time;durP1;ratioP1;P1;durP2;ratioP2;P2;SDS_P1;SDS_P2;PMS_P1;PMS_P2;Temp;Humidity;BMP_temperature;BMP_pressure;BME280_temperature;BME280_humidity;BME280_pressure;Samples;Min_cycle;Max_cycle;Signal;HPM_P1;HPM_P2
2020/12/13 00:01:14;;;;;;;7.82;5.47;;;7.30;96.70;;;;;;5001455;28;20050;-83
2020/12/13 00:03:41;;;;;;;6.05;4.90;;;7.30;96.70;;;;;;4985365;28;20284;-83
2020/12/13 00:06:08;;;;;;;7.88;5.32;;;7.30;96.70;;;;;;4988666;28;20038;-83
2020/12/13 00:08:35;;;;;;;5.70;4.88;;;7.30;96.70;;;;;;5001086;28;20108;-83
2020/12/13 00:11:04;;;;;;;7.05;5.43;;;7.30;96.70;;;;;;5000900;28;20049;-83
2020/12/13 00:13:31;;;;;;;6.88;5.10;;;7.30;96.70;;;;;;5000333;28;20050;-83
2020/12/13 00:15:58;;;;;;;7.22;5.20;;;7.30;96.70;;;;;;5000562;28;20050;-83
2020/12/13 00:18:25;;;;;;;7.32;5.05;;;7.30;96.70;;;;;;5001678;28;20041;-83
2020/12/13 00:20:53;;;;;;;6.65;5.10;;;7.30;96.70;;;;;;5000467;28;20056;-83
2020/12/13 00:23:20;;;;;;;6.60;5.28;;;7.40;96.70;;;;;;5002157;28;20042;-83
2020/12/13 00:25:47;;;;;;;7.93;5.90;;;7.40;96.70;;;;;;5001177;28;20034;-83
2020/12/13 00:28:15;;;;;;;9.88;6.47;;;7.20;96.70;;;;;;5000272;28;20046;-83
2020/12/13 00:30:42;;;;;;;19.48;15.23;;;7.00;96.70;;;;;;5000347;28;20042;-83
2020/12/13 00:33:09;;;;;;;17.98;13.32;;;6.80;96.70;;;;;;4998097;28;20038;-83
2020/12/13 00:35:36;;;;;;;13.48;10.07;;;6.70;96.70;;;;;;4999055;28;20046;-83
2020/12/13 00:38:03;;;;;;;13.52;10.10;;;6.70;96.70;;;;;;4999875;28;20046;-83
2020/12/13 00:40:30;;;;;;;13.20;9.85;;;6.70;96.70;;;;;;5001459;28;20050;-83
2020/12/13 00:42:58;;;;;;;13.45;9.57;;;6.70;96.70;;;;;;5000637;28;20066;-83
2020/12/13 00:45:26;;;;;;;10.93;8.38;;;6.70;96.70;;;;;;4999637;28;20673;-83
2020/12/13 00:47:54;;;;;;;11.82;9.35;;;6.70;96.70;;;;;;4994721;28;20066;-83
2020/12/13 00:50:21;;;;;;;12.65;10.02;;;6.70;96.70;;;;;;5015407;28;20115;-83
2020/12/13 00:52:48;;;;;;;13.45;10.93;;;6.70;96.70;;;;;;5000008;28;20453;-83
2020/12/13 00:55:15;;;;;;;11.75;10.52;;;6.70;96.70;;;;;;5002385;28;20499;-83
2020/12/13 00:57:43;;;;;;;14.10;11.25;;;6.70;96.70;;;;;;4988615;28;20050;-83
2020/12/13 01:00:10;;;;;;;14.32;11.63;;;6.70;96.70;;;;;;5004294;28;20413;-83
2020/12/13 01:02:38;;;;;;;14.63;11.45;;;6.80;96.70;;;;;;5004466;28;20038;-82
2020/12/13 01:05:05;;;;;;;13.63;11.55;;;6.80;96.70;;;;;;5002911;28;20046;-83
2020/12/13 01:07:32;;;;;;;16.35;13.15;;;6.70;96.70;;;;;;4990905;28;20611;-83
2020/12/13 01:09:59;;;;;;;27.60;15.88;;;6.70;96.70;;;;;;5001908;28;20042;-83
2020/12/13 01:12:27;;;;;;;38.53;23.15;;;6.70;96.70;;;;;;5004642;28;20042;-83
2020/12/13 01:14:54;;;;;;;30.40;19.05;;;6.70;96.70;;;;;;5003342;28;20052;-82
2020/12/13 01:17:21;;;;;;;23.25;17.25;;;6.60;96.70;;;;;;5004754;28;20097;-83
2020/12/13 01:19:49;;;;;;;15.52;11.25;;;6.60;96.70;;;;;;4984446;28;20038;-83
2020/12/13 01:22:17;;;;;;;13.07;11.23;;;6.60;96.70;;;;;;5004228;28;20128;-83
2020/12/13 01:24:44;;;;;;;13.00;11.30;;;6.60;96.70;;;;;;4985661;28;20601;-83
2020/12/13 01:27:11;;;;;;;14.23;11.82;;;6.60;96.70;;;;;;5003503;28;20389;-83
2020/12/13 01:29:38;;;;;;;12.82;10.60;;;6.70;96.70;;;;;;5003041;28;20496;-83
2020/12/13 01:32:05;;;;;;;16.30;11.90;;;6.70;96.70;;;;;;5002000;28;20484;-83
2020/12/13 01:34:32;;;;;;;14.63;10.63;;;6.80;96.70;;;;;;5003141;28;20452;-83
2020/12/13 01:37:01;;;;;;;11.30;10.10;;;6.80;96.70;;;;;;5001449;28;20049;-83
2020/12/13 01:39:28;;;;;;;12.65;10.90;;;6.80;96.70;;;;;;5004127;28;20580;-83
2020/12/13 01:41:57;;;;;;;12.25;10.80;;;6.80;96.70;;;;;;4987202;28;20045;-84
2020/12/13 01:44:30;;;;;;;12.15;10.05;;;6.90;96.70;;;;;;5003645;28;20147;-83
2020/12/13 01:46:58;;;;;;;13.25;10.48;;;6.90;96.70;;;;;;5003333;28;20161;-83
2020/12/13 01:54:33;;;;;;;17.63;10.63;;;6.50;96.70;;;;;;5002412;28;20045;-83
2020/12/13 01:57:04;;;;;;;12.43;9.30;;;6.50;96.70;;;;;;5002434;28;20574;-83
2020/12/13 01:59:36;;;;;;;11.57;9.32;;;6.30;96.70;;;;;;5002493;28;20562;-83
2020/12/13 02:02:04;;;;;;;11.32;9.63;;;6.30;96.70;;;;;;5002768;28;20408;-83
2020/12/13 02:04:34;;;;;;;10.30;9.13;;;6.30;96.70;;;;;;5002790;28;20054;-83
2020/12/13 02:07:04;;;;;;;9.85;8.45;;;6.30;96.70;;;;;;5003585;28;20123;-83
2020/12/13 02:09:31;;;;;;;12.93;9.50;;;6.30;96.70;;;;;;4985435;28;20042;-83
2020/12/13 02:11:58;;;;;;;11.35;9.45;;;6.40;96.70;;;;;;5003569;28;20034;-83
2020/12/13 02:14:26;;;;;;;11.38;9.38;;;6.30;96.70;;;;;;5002131;28;20491;-83
2020/12/13 02:16:53;;;;;;;11.63;9.75;;;6.40;96.70;;;;;;5000756;28;20044;-83
2020/12/13 02:19:21;;;;;;;11.50;9.73;;;6.40;96.70;;;;;;4985300;28;20037;-83
2020/12/13 02:21:51;;;;;;;10.90;9.15;;;6.30;96.70;;;;;;5003164;28;20048;-83
2020/12/13 02:24:19;;;;;;;9.75;8.75;;;6.40;96.70;;;;;;5001534;28;20046;-83
2020/12/13 02:26:47;;;;;;;12.45;9.02;;;6.20;96.70;;;;;;5002975;28;20057;-83
2020/12/13 02:29:15;;;;;;;11.77;9.48;;;6.10;96.70;;;;;;5002824;28;20049;-83
2020/12/13 02:31:42;;;;;;;10.48;9.30;;;6.10;96.70;;;;;;5001888;28;20070;-83
2020/12/13 02:34:09;;;;;;;14.25;9.95;;;6.10;96.70;;;;;;5001224;28;20038;-83
2020/12/13 02:36:37;;;;;;;13.75;10.80;;;6.00;96.70;;;;;;4986630;28;20116;-83
2020/12/13 02:39:06;;;;;;;15.50;11.20;;;6.00;96.70;;;;;;4999459;28;20042;-83
2020/12/13 02:41:34;;;;;;;14.43;11.15;;;6.10;96.70;;;;;;4999708;28;20061;-83
2020/12/13 02:44:01;;;;;;;15.82;9.77;;;6.10;96.70;;;;;;5002267;28;20044;-83
2020/12/13 02:46:28;;;;;;;15.68;8.60;;;6.10;96.70;;;;;;5001603;28;20040;-83
2020/12/13 02:48:56;;;;;;;42.75;9.75;;;6.10;96.70;;;;;;5003310;28;20129;-83
2020/12/13 02:51:23;;;;;;;22.13;8.43;;;6.20;96.70;;;;;;5001705;28;20455;-83
2020/12/13 02:53:50;;;;;;;23.23;7.85;;;6.10;96.70;;;;;;5001455;28;20038;-83
2020/12/13 02:56:17;;;;;;;8.15;7.10;;;6.00;96.70;;;;;;5001983;28;20058;-83
2020/12/13 02:58:45;;;;;;;9.02;7.40;;;6.00;96.70;;;;;;5014929;28;20162;-83
2020/12/13 03:01:12;;;;;;;10.70;8.23;;;6.00;96.70;;;;;;5002497;28;20461;-83
2020/12/13 03:03:39;;;;;;;9.75;7.53;;;6.00;96.70;;;;;;4999400;28;20038;-83
2020/12/13 03:06:06;;;;;;;10.32;8.35;;;6.00;96.70;;;;;;4999958;28;20041;-83
2020/12/13 03:08:33;;;;;;;7.93;7.05;;;6.00;96.70;;;;;;4998843;28;20034;-83
2020/12/13 03:11:00;;;;;;;10.10;7.70;;;5.90;96.70;;;;;;4999889;28;20072;-83
2020/12/13 03:13:27;;;;;;;8.02;7.10;;;5.70;96.70;;;;;;4998832;28;20116;-83
2020/12/13 03:15:56;;;;;;;8.95;7.45;;;5.60;96.70;;;;;;4996991;28;20059;-83
2020/12/13 03:18:23;;;;;;;7.40;6.65;;;5.50;96.70;;;;;;5017664;28;20038;-83
2020/12/13 03:20:52;;;;;;;7.38;6.60;;;5.50;96.70;;;;;;5001282;28;20524;-82
2020/12/13 03:23:19;;;;;;;7.85;7.15;;;5.50;96.70;;;;;;5001735;28;20049;-83
2020/12/13 03:25:46;;;;;;;8.20;6.82;;;5.60;96.70;;;;;;5000579;28;20042;-83
2020/12/13 03:28:13;;;;;;;8.20;6.20;;;5.60;96.70;;;;;;5002859;28;20117;-83
2020/12/13 03:30:40;;;;;;;7.05;6.35;;;5.60;96.70;;;;;;4999356;28;20490;-83
2020/12/13 03:33:08;;;;;;;8.00;6.53;;;5.60;96.70;;;;;;4986137;28;20048;-83
2020/12/13 03:35:35;;;;;;;8.02;7.18;;;5.60;96.70;;;;;;5001191;28;20133;-83
2020/12/13 03:38:02;;;;;;;8.10;7.30;;;5.60;96.70;;;;;;5001066;28;20484;-83
2020/12/13 03:40:29;;;;;;;8.57;7.68;;;5.60;96.70;;;;;;4999813;28;20500;-83
2020/12/13 03:42:56;;;;;;;8.07;7.28;;;5.60;96.70;;;;;;4998483;28;20325;-83
2020/12/13 03:45:23;;;;;;;8.45;7.15;;;5.60;96.70;;;;;;5000860;28;20045;-83
2020/12/13 03:47:51;;;;;;;7.65;6.32;;;5.60;96.70;;;;;;5002575;28;20037;-83
2020/12/13 03:50:20;;;;;;;8.02;6.80;;;5.70;96.70;;;;;;4999723;28;20508;-83
2020/12/13 03:52:47;;;;;;;7.68;6.72;;;5.60;96.70;;;;;;4982171;28;20042;-83
2020/12/13 03:55:14;;;;;;;7.72;6.18;;;5.70;96.70;;;;;;4999514;28;20038;-83
2020/12/13 03:57:41;;;;;;;7.70;6.28;;;5.60;96.70;;;;;;5000393;28;20101;-82
2020/12/13 04:00:09;;;;;;;19.25;7.65;;;5.70;96.70;;;;;;4983408;28;20073;-83
2020/12/13 04:02:38;;;;;;;24.80;7.15;;;5.70;96.70;;;;;;4999688;28;20037;-83
2020/12/13 04:05:07;;;;;;;22.70;8.63;;;5.70;96.70;;;;;;5000758;28;20038;-83
2020/12/13 04:07:37;;;;;;;31.35;7.85;;;5.70;96.70;;;;;;5000465;28;20041;-83
2020/12/13 04:10:04;;;;;;;40.78;9.05;;;5.70;96.70;;;;;;4999981;28;20046;-83
2020/12/13 04:12:31;;;;;;;30.55;8.00;;;5.80;96.70;;;;;;5000511;28;20049;-83
2020/12/13 04:14:58;;;;;;;31.08;7.32;;;5.70;96.70;;;;;;5002144;28;20037;-83
2020/12/13 04:17:25;;;;;;;18.27;6.57;;;5.70;96.70;;;;;;4999934;28;20038;-83
2020/12/13 04:19:52;;;;;;;17.88;6.00;;;5.60;96.70;;;;;;5003232;28;20282;-83
2020/12/13 04:22:23;;;;;;;15.45;6.30;;;5.60;96.70;;;;;;5001343;28;20534;-83
2020/12/13 04:24:59;;;;;;;8.15;5.47;;;5.60;96.70;;;;;;4982309;28;20441;-84
2020/12/13 04:27:32;;;;;;;;;;;5.50;96.70;;;;;;5016691;28;20069;-84
2020/12/13 04:30:00;;;;;;;7.57;5.35;;;5.60;96.70;;;;;;4979187;28;20019;-83
2020/12/13 04:32:27;;;;;;;7.88;5.57;;;5.60;96.70;;;;;;4999902;28;20030;-83
2020/12/13 04:34:54;;;;;;;7.50;6.15;;;5.60;96.70;;;;;;5012799;28;20145;-83
2020/12/13 04:37:23;;;;;;;6.07;4.90;;;5.60;96.70;;;;;;4983518;28;20042;-83
2020/12/13 04:39:51;;;;;;;6.68;5.13;;;5.60;96.70;;;;;;4999969;28;20105;-83
2020/12/13 04:42:20;;;;;;;6.05;4.72;;;5.50;96.70;;;;;;4999936;28;20054;-83
2020/12/13 04:44:47;;;;;;;6.18;4.43;;;5.40;96.70;;;;;;4998726;28;20046;-83
2020/12/13 04:47:17;;;;;;;5.03;4.22;;;5.40;96.70;;;;;;5000271;28;20048;-83
2020/12/13 04:49:48;;;;;;;5.60;4.05;;;5.40;96.70;;;;;;4999516;28;20061;-83
2020/12/13 04:52:15;;;;;;;5.85;3.53;;;5.40;96.70;;;;;;4999343;28;20119;-83
2020/12/13 04:54:48;;;;;;;3.97;3.53;;;5.40;96.70;;;;;;4984363;28;20046;-83
2020/12/13 04:57:17;;;;;;;4.55;3.50;;;5.40;96.70;;;;;;5000014;28;20126;-83
2020/12/13 04:59:47;;;;;;;4.25;3.25;;;5.40;96.70;;;;;;4996652;28;20519;-83
2020/12/13 05:02:15;;;;;;;3.80;3.30;;;5.30;96.70;;;;;;4985128;28;20478;-83
2020/12/13 05:04:43;;;;;;;2.92;2.67;;;5.30;96.70;;;;;;4984504;28;20469;-83
2020/12/13 05:07:10;;;;;;;3.80;2.78;;;5.30;96.70;;;;;;4998261;28;20034;-83
2020/12/13 05:09:39;;;;;;;2.97;2.63;;;5.30;96.70;;;;;;5000343;28;20883;-83
2020/12/13 05:12:06;;;;;;;3.13;2.60;;;5.20;96.70;;;;;;4997786;28;20033;-83
2020/12/13 05:14:34;;;;;;;2.85;2.30;;;5.10;96.70;;;;;;4984258;28;20053;-82
2020/12/13 05:17:10;;;;;;;2.25;2.00;;;5.10;96.70;;;;;;4999255;28;20068;-83
2020/12/13 05:19:38;;;;;;;3.05;2.67;;;5.20;96.70;;;;;;4993896;28;20087;-83
2020/12/13 05:22:06;;;;;;;3.47;2.67;;;5.20;96.70;;;;;;4997525;28;20359;-83
2020/12/13 05:24:35;;;;;;;4.60;3.08;;;5.20;96.70;;;;;;5001420;28;20132;-83
2020/12/13 05:27:04;;;;;;;4.43;3.03;;;5.10;96.70;;;;;;4997302;28;20439;-83
2020/12/13 05:29:34;;;;;;;4.03;2.40;;;5.10;96.70;;;;;;4998971;28;20069;-82
2020/12/13 05:32:20;;;;;;;2.83;2.17;;;5.00;96.70;;;;;;4998135;28;20462;-83
2020/12/13 05:34:50;;;;;;;3.03;2.40;;;5.00;96.70;;;;;;4983608;28;20064;-83
2020/12/13 05:37:18;;;;;;;3.08;2.42;;;5.00;96.70;;;;;;5001957;28;20042;-83
2020/12/13 05:39:49;;;;;;;2.85;2.00;;;5.00;96.70;;;;;;4999321;28;20048;-83
2020/12/13 05:42:27;;;;;;;3.38;2.65;;;4.90;96.70;;;;;;5001299;28;20033;-83
2020/12/13 05:45:11;;;;;;;2.10;1.90;;;4.80;96.70;;;;;;5016822;28;20049;-83
2020/12/13 05:52:53;;;;;;;2.42;1.80;;;4.80;96.70;;;;;;5001760;28;20056;-83
2020/12/13 05:55:20;;;;;;;3.33;2.15;;;4.80;96.70;;;;;;5000203;28;20464;-83
2020/12/13 05:57:49;;;;;;;2.83;2.05;;;4.80;96.70;;;;;;4986797;28;20507;-83
2020/12/13 06:00:17;;;;;;;2.67;1.83;;;4.90;96.70;;;;;;5002904;28;20034;-82
2020/12/13 06:02:48;;;;;;;2.80;2.03;;;4.90;96.70;;;;;;5003133;28;20030;-83
2020/12/13 06:05:16;;;;;;;2.17;1.92;;;4.80;96.70;;;;;;4999625;28;20060;-82
2020/12/13 06:07:48;;;;;;;3.17;2.10;;;4.80;96.70;;;;;;5002191;28;20030;-83
2020/12/13 06:10:24;;;;;;;3.13;2.65;;;4.80;96.70;;;;;;4992427;28;20073;-82
2020/12/13 06:12:58;;;;;;;2.67;2.10;;;4.90;96.70;;;;;;5003449;28;20038;-83
2020/12/13 06:15:28;;;;;;;2.55;2.17;;;4.90;96.70;;;;;;5001067;28;20049;-83
2020/12/13 06:17:57;;;;;;;2.22;1.90;;;4.90;96.70;;;;;;5002235;28;20041;-83
2020/12/13 06:20:24;;;;;;;2.05;1.85;;;4.80;96.70;;;;;;5002979;28;20327;-83
2020/12/13 06:22:53;;;;;;;5.68;4.43;;;4.70;96.70;;;;;;5003594;28;20921;-83
2020/12/13 06:25:21;;;;;;;4.38;3.83;;;4.90;96.70;;;;;;5017203;28;20037;-83
2020/12/13 06:27:50;;;;;;;3.58;2.60;;;5.00;96.70;;;;;;4985458;28;20519;-83
2020/12/13 06:30:19;;;;;;;2.47;2.22;;;4.80;96.70;;;;;;4985693;28;20515;-83
2020/12/13 06:32:51;;;;;;;3.00;2.70;;;4.60;96.70;;;;;;5003355;28;20092;-83
2020/12/13 06:35:19;;;;;;;7.03;4.15;;;4.60;96.70;;;;;;5002649;28;20073;-83
2020/12/13 06:37:47;;;;;;;5.43;4.68;;;4.60;96.70;;;;;;5001416;28;20041;-83
2020/12/13 06:40:20;;;;;;;5.90;4.18;;;4.50;96.70;;;;;;4985355;28;20109;-83
2020/12/13 06:42:49;;;;;;;5.43;3.70;;;4.50;96.70;;;;;;5014841;28;20073;-83
2020/12/13 06:45:17;;;;;;;7.63;4.28;;;4.40;96.70;;;;;;5001263;28;20042;-83
2020/12/13 06:47:50;;;;;;;4.97;3.97;;;4.50;96.70;;;;;;4999844;28;20042;-83
2020/12/13 06:50:22;;;;;;;4.82;4.15;;;4.50;96.70;;;;;;5001304;28;20084;-83
2020/12/13 06:52:50;;;;;;;4.97;4.43;;;4.50;96.70;;;;;;5001726;28;20128;-83
2020/12/13 06:55:29;;;;;;;4.60;4.10;;;4.50;96.70;;;;;;5001685;28;20049;-83
2020/12/13 06:57:56;;;;;;;5.53;4.32;;;4.50;96.70;;;;;;5002001;28;20046;-83
2020/12/13 07:00:23;;;;;;;6.82;4.40;;;4.40;96.70;;;;;;5002991;28;20038;-83
2020/12/13 07:02:57;;;;;;;6.72;5.35;;;4.40;96.70;;;;;;4999399;28;20088;-83
2020/12/13 07:05:52;;;;;;;5.53;4.38;;;4.40;96.70;;;;;;5002383;28;20504;-82
2020/12/13 07:08:22;;;;;;;6.72;4.85;;;4.50;96.70;;;;;;5035364;28;20049;-83
2020/12/13 07:10:52;;;;;;;5.45;4.63;;;4.50;96.70;;;;;;5000053;28;20311;-83
2020/12/13 07:13:22;;;;;;;5.25;4.15;;;4.50;96.70;;;;;;5000304;28;20057;-83
2020/12/13 07:15:54;;;;;;;4.93;4.43;;;4.60;96.70;;;;;;4998396;28;20516;-83
2020/12/13 07:18:23;;;;;;;5.72;4.35;;;4.60;96.70;;;;;;5002444;28;20041;-83
2020/12/13 07:20:51;;;;;;;7.03;5.00;;;4.50;96.70;;;;;;5000357;28;20088;-83
2020/12/13 07:23:20;;;;;;;6.55;5.10;;;4.60;96.70;;;;;;5001255;28;20096;-83
2020/12/13 07:25:47;;;;;;;7.03;5.22;;;4.60;96.70;;;;;;4985003;28;20124;-83
2020/12/13 07:28:17;;;;;;;6.65;5.25;;;4.70;96.70;;;;;;4999270;28;20038;-83
2020/12/13 07:30:46;;;;;;;7.07;5.18;;;4.70;96.70;;;;;;5000038;28;20479;-83
2020/12/13 07:33:15;;;;;;;6.90;5.13;;;4.80;96.70;;;;;;5001064;28;20092;-83
2020/12/13 07:35:42;;;;;;;9.77;7.38;;;4.80;96.70;;;;;;5001460;28;20049;-83
2020/12/13 07:38:10;;;;;;;11.13;8.70;;;4.80;96.70;;;;;;5000687;28;20034;-83
2020/12/13 07:40:37;;;;;;;8.70;7.05;;;4.90;96.70;;;;;;5001759;28;20038;-83
2020/12/13 07:43:05;;;;;;;7.38;5.35;;;4.90;96.70;;;;;;5002433;28;20116;-83
2020/12/13 07:45:32;;;;;;;6.45;4.93;;;5.00;96.70;;;;;;4983268;28;20405;-83
2020/12/13 07:48:00;;;;;;;4.63;3.78;;;5.00;96.70;;;;;;5000152;28;20037;-83
2020/12/13 07:50:28;;;;;;;3.67;2.55;;;5.00;96.70;;;;;;4985007;28;20048;-83
2020/12/13 07:52:55;;;;;;;3.83;2.83;;;5.00;96.70;;;;;;5001934;28;20056;-83
2020/12/13 07:55:23;;;;;;;4.10;3.22;;;5.00;96.70;;;;;;5000801;28;20041;-83
2020/12/13 07:57:52;;;;;;;4.55;3.53;;;5.00;96.70;;;;;;5001713;28;20818;-82
2020/12/13 08:00:20;;;;;;;5.28;3.22;;;5.00;96.70;;;;;;5000458;28;20111;-83
2020/12/13 08:02:48;;;;;;;5.65;3.65;;;5.10;96.70;;;;;;5001067;28;20038;-83
2020/12/13 08:05:23;;;;;;;4.15;3.15;;;5.10;96.70;;;;;;5000292;28;20045;-83
2020/12/13 08:07:57;;;;;;;4.90;3.40;;;5.10;96.70;;;;;;5029299;28;20514;-83
2020/12/13 08:10:28;;;;;;;6.30;3.65;;;5.10;96.70;;;;;;5000110;28;20133;-83
2020/12/13 08:12:56;;;;;;;3.95;3.50;;;5.10;96.70;;;;;;4984891;28;20524;-82
2020/12/13 08:15:23;;;;;;;5.38;4.22;;;5.20;96.70;;;;;;4991475;28;20042;-83
2020/12/13 08:18:03;;;;;;;4.78;3.97;;;5.30;96.70;;;;;;4999080;28;20037;-82
2020/12/13 08:20:35;;;;;;;4.35;3.65;;;5.30;96.70;;;;;;5001086;28;20389;-83
2020/12/13 08:23:04;;;;;;;4.75;3.85;;;5.30;96.70;;;;;;4976006;28;20045;-83
2020/12/13 08:25:35;;;;;;;5.65;4.20;;;5.30;96.70;;;;;;5015428;28;20113;-82
2020/12/13 08:28:03;;;;;;;4.75;4.28;;;5.30;96.70;;;;;;4997780;28;20034;-83
2020/12/13 08:30:31;;;;;;;4.75;3.85;;;5.30;96.70;;;;;;4997437;28;20050;-83
2020/12/13 08:32:58;;;;;;;4.25;3.85;;;5.30;96.70;;;;;;4997780;28;20045;-83
2020/12/13 08:35:28;;;;;;;6.07;4.53;;;5.20;96.70;;;;;;5000187;28;20046;-83
2020/12/13 08:37:57;;;;;;;5.05;4.22;;;5.30;96.70;;;;;;5002667;28;20041;-83
2020/12/13 08:40:41;;;;;;;5.93;4.32;;;5.30;96.70;;;;;;4999126;28;20038;-82
2020/12/13 08:43:10;;;;;;;6.15;4.45;;;5.40;96.70;;;;;;5000277;28;20049;-82
2020/12/13 08:45:37;;;;;;;4.63;4.10;;;5.40;96.70;;;;;;4983875;28;20046;-82
2020/12/13 08:48:09;;;;;;;5.95;4.50;;;5.40;96.70;;;;;;5001862;28;20069;-82
2020/12/13 08:50:39;;;;;;;5.72;4.53;;;5.50;96.70;;;;;;5001903;28;20229;-82
2020/12/13 08:53:22;;;;;;;5.63;4.38;;;5.70;96.70;;;;;;5012220;28;20143;-82
2020/12/13 08:56:05;;;;;;;5.35;4.80;;;5.70;96.70;;;;;;4997038;28;20045;-83
2020/12/13 08:58:46;;;;;;;5.18;4.57;;;5.90;96.70;;;;;;4999433;28;20052;-84
2020/12/13 09:01:14;;;;;;;5.00;4.50;;;5.90;96.70;;;;;;4998114;28;20046;-85
2020/12/13 09:03:41;;;;;;;6.20;5.40;;;6.00;96.70;;;;;;5001140;28;20038;-83
2020/12/13 09:06:08;;;;;;;6.18;5.05;;;6.10;96.70;;;;;;4999881;28;20030;-82
2020/12/13 09:08:36;;;;;;;6.60;5.68;;;6.10;96.70;;;;;;5016114;28;20048;-87
2020/12/13 09:11:04;;;;;;;5.88;5.13;;;6.20;96.70;;;;;;4999660;28;20057;-87
2020/12/13 09:13:32;;;;;;;6.25;5.47;;;6.20;96.70;;;;;;5001776;28;20045;-85
2020/12/13 09:16:05;;;;;;;6.30;5.15;;;6.30;96.70;;;;;;4986014;28;20065;-82
2020/12/13 09:18:32;;;;;;;6.38;5.45;;;6.40;96.70;;;;;;4983327;28;20453;-81
2020/12/13 09:20:59;;;;;;;9.88;5.57;;;6.60;96.70;;;;;;5003026;28;20176;-83
2020/12/13 09:23:27;;;;;;;6.22;5.22;;;6.60;96.70;;;;;;5000885;28;20046;-89
2020/12/13 09:25:54;;;;;;;7.50;6.07;;;6.80;96.70;;;;;;5016898;28;20057;-83
2020/12/13 09:28:22;;;;;;;9.57;7.50;;;6.90;96.70;;;;;;5017402;28;20569;-89
2020/12/13 09:30:50;;;;;;;17.75;8.38;;;7.00;96.70;;;;;;4984508;28;20046;-82
2020/12/13 09:33:17;;;;;;;14.20;9.63;;;7.10;96.70;;;;;;5001165;28;20038;-84
2020/12/13 09:35:44;;;;;;;14.50;10.18;;;7.30;96.70;;;;;;5000102;28;20573;-80
2020/12/13 09:38:11;;;;;;;10.30;8.63;;;7.40;96.70;;;;;;5000532;28;20045;-87
2020/12/13 09:40:39;;;;;;;10.80;8.70;;;7.50;96.70;;;;;;5033959;28;20141;-83
2020/12/13 09:43:06;;;;;;;11.60;9.23;;;7.60;96.70;;;;;;4985787;28;20049;-80
2020/12/13 09:45:34;;;;;;;10.32;8.90;;;7.70;96.70;;;;;;5000398;28;20132;-85
2020/12/13 09:48:01;;;;;;;11.05;9.35;;;7.70;96.70;;;;;;5001841;28;20042;-83
2020/12/13 09:50:29;;;;;;;11.05;8.90;;;7.80;96.70;;;;;;5000883;28;20065;-84
2020/12/13 09:52:56;;;;;;;10.90;8.30;;;8.00;96.70;;;;;;5004063;28;20132;-86
2020/12/13 09:55:24;;;;;;;9.68;8.25;;;8.10;96.70;;;;;;5001264;28;20057;-94
2020/12/13 09:57:55;;;;;;;9.98;8.93;;;8.20;96.70;;;;;;5001523;28;20037;-84
2020/12/13 10:00:23;;;;;;;10.02;8.50;;;8.30;96.70;;;;;;4986050;28;20164;-89
2020/12/13 10:02:52;;;;;;;8.18;7.35;;;8.30;96.70;;;;;;5007388;28;20069;-90
2020/12/13 10:05:26;;;;;;;8.55;7.63;;;8.40;96.70;;;;;;5004130;28;20109;-86
2020/12/13 10:10:30;;;;;;;11.88;8.40;;;8.60;96.70;;;;;;5003570;28;20060;-85
2020/12/13 10:12:58;;;;;;;10.18;8.55;;;8.60;96.70;;;;;;5003358;28;20049;-84
2020/12/13 10:15:26;;;;;;;10.90;8.30;;;8.70;96.70;;;;;;5005544;28;20054;-84
2020/12/13 10:17:54;;;;;;;9.48;8.25;;;8.80;96.70;;;;;;5003141;28;20049;-85
2020/12/13 10:20:21;;;;;;;10.30;9.20;;;8.90;96.70;;;;;;5004265;28;20073;-86
2020/12/13 10:22:48;;;;;;;8.85;7.95;;;9.00;96.70;;;;;;4999989;28;20148;-83
2020/12/13 10:25:16;;;;;;;10.48;9.38;;;9.10;96.70;;;;;;5002171;28;20092;-86
2020/12/13 10:27:44;;;;;;;9.10;8.20;;;9.20;96.70;;;;;;5005976;28;20045;-82
2020/12/13 10:30:11;;;;;;;9.98;8.98;;;9.30;96.70;;;;;;5003028;28;20048;-91
2020/12/13 10:32:38;;;;;;;10.43;9.18;;;9.40;96.70;;;;;;5008118;28;20061;-85
2020/12/13 10:35:06;;;;;;;9.82;8.82;;;9.60;96.70;;;;;;5001302;28;20123;-89
2020/12/13 10:37:33;;;;;;;9.63;8.65;;;9.60;96.70;;;;;;4986333;28;20143;-84
2020/12/13 10:40:01;;;;;;;11.15;9.93;;;9.70;96.70;;;;;;4982133;28;20049;-86
2020/12/13 10:42:28;;;;;;;11.95;9.90;;;9.70;96.70;;;;;;5018621;28;20038;-85
2020/12/13 10:44:56;;;;;;;14.88;12.00;;;9.80;96.70;;;;;;5002762;28;20046;-86
2020/12/13 10:47:24;;;;;;;11.40;10.02;;;9.90;96.70;;;;;;5005223;28;20064;-83
2020/12/13 10:49:52;;;;;;;20.02;16.10;;;10.00;96.70;;;;;;4999636;28;20165;-82
2020/12/13 10:52:20;;;;;;;13.18;11.32;;;10.20;96.70;;;;;;4986859;28;20042;-86
2020/12/13 10:54:49;;;;;;;12.65;10.90;;;10.30;96.70;;;;;;4999722;28;20053;-81
2020/12/13 10:57:16;;;;;;;12.60;9.80;;;10.30;96.70;;;;;;5001299;28;20042;-80
2020/12/13 10:59:43;;;;;;;13.02;9.85;;;10.40;96.70;;;;;;5005345;28;20116;-86
2020/12/13 11:02:10;;;;;;;12.90;9.65;;;10.50;96.70;;;;;;4988104;28;20436;-81
2020/12/13 11:04:39;;;;;;;11.35;9.45;;;10.50;96.70;;;;;;5003911;28;20042;-81
2020/12/13 11:07:08;;;;;;;9.18;7.90;;;10.60;96.70;;;;;;5020960;28;20030;-79
2020/12/13 11:09:37;;;;;;;8.43;7.53;;;10.70;96.70;;;;;;5001208;28;20132;-83
2020/12/13 11:12:04;;;;;;;8.50;7.70;;;10.70;96.70;;;;;;5000115;28;20073;-80
2020/12/13 11:14:32;;;;;;;9.82;7.07;;;10.70;96.70;;;;;;5011349;28;20507;-79
2020/12/13 11:17:00;;;;;;;8.30;6.97;;;10.80;96.70;;;;;;5011006;28;20646;-79
2020/12/13 11:19:30;;;;;;;8.32;7.53;;;10.90;96.70;;;;;;4999165;28;20148;-82
2020/12/13 11:21:59;;;;;;;8.10;7.22;;;10.90;96.70;;;;;;4998684;28;20057;-81
2020/12/13 11:24:26;;;;;;;8.27;7.35;;;11.00;96.70;;;;;;4998918;28;20046;-79
2020/12/13 11:26:54;;;;;;;9.65;7.05;;;11.10;96.70;;;;;;4997588;28;20088;-81
2020/12/13 11:29:21;;;;;;;8.55;7.32;;;11.20;96.70;;;;;;4996722;28;20411;-82
2020/12/13 11:31:51;;;;;;;7.10;6.30;;;11.30;96.70;;;;;;4982954;28;20145;-84
2020/12/13 11:34:20;;;;;;;8.48;6.50;;;11.30;96.70;;;;;;5002055;28;20037;-85
2020/12/13 11:36:47;;;;;;;7.68;6.45;;;11.50;96.70;;;;;;5005490;28;20030;-83
2020/12/13 11:39:14;;;;;;;12.60;7.28;;;11.60;96.70;;;;;;4999270;28;20046;-79
2020/12/13 11:41:42;;;;;;;10.10;6.70;;;11.70;96.70;;;;;;4981603;28;20050;-78
2020/12/13 11:44:10;;;;;;;7.35;6.03;;;11.70;96.70;;;;;;4983281;28;20050;-80
2020/12/13 11:46:37;;;;;;;6.82;5.72;;;11.80;96.70;;;;;;4998464;28;20852;-78
2020/12/13 11:49:05;;;;;;;5.82;5.05;;;11.90;96.70;;;;;;4999287;28;20046;-82
2020/12/13 11:51:32;;;;;;;7.80;5.10;;;12.00;96.70;;;;;;4999152;28;20412;-81
2020/12/13 11:54:00;;;;;;;20.50;10.02;;;12.10;96.70;;;;;;5014252;28;20042;-88
2020/12/13 11:56:27;;;;;;;7.97;6.15;;;12.10;96.70;;;;;;4984642;28;20069;-88
2020/12/13 11:58:54;;;;;;;8.02;5.97;;;12.20;96.70;;;;;;5002850;28;20042;-84
2020/12/13 12:01:22;;;;;;;8.35;6.35;;;12.30;96.70;;;;;;4997442;28;20065;-83
2020/12/13 12:03:50;;;;;;;5.43;4.88;;;12.30;96.70;;;;;;4999117;28;20736;-79
2020/12/13 12:06:17;;;;;;;6.28;5.00;;;12.40;96.70;;;;;;4978184;28;20034;-79
2020/12/13 12:09:00;;;;;;;11.18;7.63;;;12.60;96.70;;;;;;4997770;28;20041;-81
2020/12/13 12:11:27;;;;;;;8.05;5.35;;;12.60;96.70;;;;;;4998308;28;20522;-82
2020/12/13 12:13:54;;;;;;;7.13;4.80;;;12.70;96.70;;;;;;4997656;28;20045;-77
2020/12/13 12:16:26;;;;;;;7.68;5.95;;;12.80;96.70;;;;;;4997329;28;20046;-87
2020/12/13 12:18:54;;;;;;;5.10;4.60;;;12.90;96.70;;;;;;4983963;28;20096;-84
2020/12/13 12:21:24;;;;;;;5.28;4.72;;;12.90;96.70;;;;;;5001560;28;20459;-83
2020/12/13 12:23:53;;;;;;;4.18;3.72;;;13.10;96.70;;;;;;4998214;28;20156;-84
2020/12/13 12:26:20;;;;;;;7.00;4.50;;;13.10;96.70;;;;;;4975396;28;20452;-84
2020/12/13 12:28:48;;;;;;;28.27;8.70;;;13.20;96.70;;;;;;4985901;28;20040;-89
2020/12/13 12:31:17;;;;;;;6.72;4.93;;;13.30;96.70;;;;;;4978022;28;20512;-87
2020/12/13 12:33:46;;;;;;;7.05;4.57;;;13.40;96.70;;;;;;4999719;28;20069;-89
2020/12/13 12:36:14;;;;;;;6.38;4.57;;;13.40;96.70;;;;;;4981068;28;20069;-90
2020/12/13 12:38:43;;;;;;;4.78;3.17;;;13.50;96.70;;;;;;5002944;28;20112;-90
2020/12/13 12:41:12;;;;;;;4.45;3.05;;;13.50;96.70;;;;;;5020127;28;20045;-87
2020/12/13 12:43:40;;;;;;;3.50;2.90;;;13.50;95.80;;;;;;5017265;28;20052;-88
2020/12/13 12:46:07;;;;;;;2.72;2.45;;;13.60;96.70;;;;;;4995988;28;20137;-87
2020/12/13 12:48:35;;;;;;;3.50;2.70;;;13.70;96.70;;;;;;5000268;28;20070;-87
2020/12/13 12:51:04;;;;;;;3.28;2.95;;;13.90;96.70;;;;;;4986972;28;20045;-86
2020/12/13 12:53:31;;;;;;;5.07;3.42;;;13.90;96.70;;;;;;5005017;28;20125;-85
2020/12/13 12:55:59;;;;;;;3.83;3.40;;;13.90;96.70;;;;;;5003361;28;20595;-86
2020/12/13 12:58:35;;;;;;;3.10;2.70;;;13.90;96.70;;;;;;4986577;28;20046;-86
2020/12/13 13:01:05;;;;;;;;;;;13.90;96.70;;;;;;5013778;28;20042;-92
2020/12/13 13:03:33;;;;;;;6.30;4.95;;;13.90;96.70;;;;;;4988013;28;19944;-82
2020/12/13 13:06:08;;;;;;;4.97;4.20;;;13.90;96.70;;;;;;5001805;28;20038;-87
2020/12/13 13:08:44;;;;;;;5.15;4.07;;;14.00;96.70;;;;;;5004406;28;20034;-89
2020/12/13 13:11:15;;;;;;;4.88;3.72;;;14.00;96.70;;;;;;5001876;28;20124;-88